sensor_id;sensor_type;location;lat;lon;timestamp;temperature;humidity
69189;DHT22;56302;52.322;5.926;2022-12-18T00:02:12;-4.20;99.90
69189;DHT22;56302;52.322;5.926;2022-12-18T00:04:38;-4.20;99.90
69189;DHT22;56302;52.322;5.926;2022-12-18T00:07:03;-4.10;99.90
69189;DHT22;56302;52.322;5.926;2022-12-18T00:09:29;-4.10;99.90
69189;DHT22;56302;52.322;5.926;2022-12-18T00:11:55;-4.10;99.90
69189;DHT22;56302;52.322;5.926;2022-12-18T00:14:20;-4.10;99.90
69189;DHT22;56302;52.322;5.926;2022-12-18T00:16:46;-4.20;99.90
69189;DHT22;56302;52.322;5.926;2022-12-18T00:19:12;-4.20;99.90
69189;DHT22;56302;52.322;5.926;2022-12-18T00:21:38;-4.30;99.90
69189;DHT22;56302;52.322;5.926;2022-12-18T00:24:04;-4.40;99.90
69189;DHT22;56302;52.322;5.926;2022-12-18T00:26:32;-4.40;99.90
69189;DHT22;56302;52.322;5.926;2022-12-18T00:29:00;-4.50;99.90
69189;DHT22;56302;52.322;5.926;2022-12-18T00:31:26;-4.50;99.90
69189;DHT22;56302;52.322;5.926;2022-12-18T00:33:54;-4.60;99.90
69189;DHT22;56302;52.322;5.926;2022-12-18T00:36:25;-4.70;99.90
69189;DHT22;56302;52.322;5.926;2022-12-18T00:38:51;-4.70;99.90
69189;DHT22;56302;52.322;5.926;2022-12-18T00:41:18;-4.70;99.90
69189;DHT22;56302;52.322;5.926;2022-12-18T00:44:03;-4.80;99.90
69189;DHT22;56302;52.322;5.926;2022-12-18T00:46:29;-4.70;99.90
69189;DHT22;56302;52.322;5.926;2022-12-18T00:48:55;-4.80;99.80
69189;DHT22;56302;52.322;5.926;2022-12-18T00:51:20;-4.80;99.80
69189;DHT22;56302;52.322;5.926;2022-12-18T00:53:46;-4.90;99.80
69189;DHT22;56302;52.322;5.926;2022-12-18T00:56:11;-4.90;99.70
69189;DHT22;56302;52.322;5.926;2022-12-18T00:58:37;-4.90;99.80
69189;DHT22;56302;52.322;5.926;2022-12-18T01:01:06;-4.80;99.90
69189;DHT22;56302;52.322;5.926;2022-12-18T01:03:31;-4.80;99.90
69189;DHT22;56302;52.322;5.926;2022-12-18T01:05:57;-4.80;99.90
69189;DHT22;56302;52.322;5.926;2022-12-18T01:08:23;-4.80;99.90
69189;DHT22;56302;52.322;5.926;2022-12-18T01:10:48;-4.80;99.90
69189;DHT22;56302;52.322;5.926;2022-12-18T01:13:14;-4.80;99.90
69189;DHT22;56302;52.322;5.926;2022-12-18T01:15:39;-4.80;99.90
69189;DHT22;56302;52.322;5.926;2022-12-18T01:18:06;-4.90;99.90
69189;DHT22;56302;52.322;5.926;2022-12-18T01:20:32;-4.90;99.90
69189;DHT22;56302;52.322;5.926;2022-12-18T01:22:57;-5.00;99.90
69189;DHT22;56302;52.322;5.926;2022-12-18T01:25:23;-5.00;99.90
69189;DHT22;56302;52.322;5.926;2022-12-18T01:27:48;-5.00;99.90
69189;DHT22;56302;52.322;5.926;2022-12-18T01:30:14;-5.00;99.90
69189;DHT22;56302;52.322;5.926;2022-12-18T01:32:40;-5.10;99.90
69189;DHT22;56302;52.322;5.926;2022-12-18T01:35:06;-5.10;99.90
69189;DHT22;56302;52.322;5.926;2022-12-18T01:37:32;-5.00;99.90
69189;DHT22;56302;52.322;5.926;2022-12-18T01:39:57;-5.00;99.90
69189;DHT22;56302;52.322;5.926;2022-12-18T01:42:23;-5.00;99.90
69189;DHT22;56302;52.322;5.926;2022-12-18T01:47:50;-5.20;99.90
69189;DHT22;56302;52.322;5.926;2022-12-18T01:50:21;-5.20;99.90
69189;DHT22;56302;52.322;5.926;2022-12-18T01:52:56;-5.20;99.90
69189;DHT22;56302;52.322;5.926;2022-12-18T01:55:25;-5.20;99.90
69189;DHT22;56302;52.322;5.926;2022-12-18T01:57:56;-5.20;99.90
69189;DHT22;56302;52.322;5.926;2022-12-18T02:00:23;-5.30;99.90
69189;DHT22;56302;52.322;5.926;2022-12-18T02:02:50;-5.40;99.90
69189;DHT22;56302;52.322;5.926;2022-12-18T02:05:19;-5.40;99.90
69189;DHT22;56302;52.322;5.926;2022-12-18T02:08:40;-5.50;99.90
69189;DHT22;56302;52.322;5.926;2022-12-18T02:11:53;-5.50;99.90
69189;DHT22;56302;52.322;5.926;2022-12-18T02:14:30;-5.50;99.80
69189;DHT22;56302;52.322;5.926;2022-12-18T02:17:06;-5.60;99.80
69189;DHT22;56302;52.322;5.926;2022-12-18T02:22:35;-5.90;99.40
69189;DHT22;56302;52.322;5.926;2022-12-18T02:25:13;-5.80;99.60
69189;DHT22;56302;52.322;5.926;2022-12-18T02:27:41;-5.90;99.50
69189;DHT22;56302;52.322;5.926;2022-12-18T02:30:10;-5.80;99.60
69189;DHT22;56302;52.322;5.926;2022-12-18T02:32:40;-5.70;99.30
69189;DHT22;56302;52.322;5.926;2022-12-18T02:35:11;-5.80;99.00
69189;DHT22;56302;52.322;5.926;2022-12-18T02:37:39;-5.70;99.00
69189;DHT22;56302;52.322;5.926;2022-12-18T02:40:08;-5.70;98.40
69189;DHT22;56302;52.322;5.926;2022-12-18T02:42:34;-5.70;98.50
69189;DHT22;56302;52.322;5.926;2022-12-18T02:44:59;-6.00;97.10
69189;DHT22;56302;52.322;5.926;2022-12-18T02:47:29;-6.10;98.10
69189;DHT22;56302;52.322;5.926;2022-12-18T02:50:25;-6.00;98.10
69189;DHT22;56302;52.322;5.926;2022-12-18T02:56:19;-6.20;97.60
69189;DHT22;56302;52.322;5.926;2022-12-18T02:59:07;-6.20;97.40
69189;DHT22;56302;52.322;5.926;2022-12-18T03:04:20;-6.10;97.20
69189;DHT22;56302;52.322;5.926;2022-12-18T03:06:54;-6.20;96.70
69189;DHT22;56302;52.322;5.926;2022-12-18T03:09:31;-6.40;96.30
69189;DHT22;56302;52.322;5.926;2022-12-18T03:12:12;-6.60;96.60
69189;DHT22;56302;52.322;5.926;2022-12-18T03:15:03;-6.70;97.00
69189;DHT22;56302;52.322;5.926;2022-12-18T03:17:31;-6.80;97.50
69189;DHT22;56302;52.322;5.926;2022-12-18T03:20:03;-6.80;97.40
69189;DHT22;56302;52.322;5.926;2022-12-18T03:22:32;-6.90;97.90
69189;DHT22;56302;52.322;5.926;2022-12-18T03:25:01;-6.70;98.20
69189;DHT22;56302;52.322;5.926;2022-12-18T03:27:29;-6.70;98.20
69189;DHT22;56302;52.322;5.926;2022-12-18T03:30:03;-6.60;97.80
69189;DHT22;56302;52.322;5.926;2022-12-18T03:33:01;-6.80;97.50
69189;DHT22;56302;52.322;5.926;2022-12-18T03:35:33;-6.80;97.90
69189;DHT22;56302;52.322;5.926;2022-12-18T03:38:00;-6.90;97.70
69189;DHT22;56302;52.322;5.926;2022-12-18T03:40:32;-6.90;97.80
69189;DHT22;56302;52.322;5.926;2022-12-18T03:43:35;-7.00;97.70
69189;DHT22;56302;52.322;5.926;2022-12-18T03:46:11;-6.80;98.10
69189;DHT22;56302;52.322;5.926;2022-12-18T03:48:48;-6.80;97.70
69189;DHT22;56302;52.322;5.926;2022-12-18T03:51:35;-6.80;97.10
69189;DHT22;56302;52.322;5.926;2022-12-18T03:54:04;-7.00;96.80
69189;DHT22;56302;52.322;5.926;2022-12-18T03:56:33;-7.20;97.10
69189;DHT22;56302;52.322;5.926;2022-12-18T03:59:02;-7.30;97.50
69189;DHT22;56302;52.322;5.926;2022-12-18T04:01:32;-7.30;97.70
69189;DHT22;56302;52.322;5.926;2022-12-18T04:04:00;-7.30;97.90
69189;DHT22;56302;52.322;5.926;2022-12-18T04:06:28;-7.20;98.30
69189;DHT22;56302;52.322;5.926;2022-12-18T04:08:54;-7.10;98.40
69189;DHT22;56302;52.322;5.926;2022-12-18T04:11:20;-7.30;97.90
69189;DHT22;56302;52.322;5.926;2022-12-18T04:13:45;-7.20;98.20
69189;DHT22;56302;52.322;5.926;2022-12-18T04:16:11;-7.10;97.90
69189;DHT22;56302;52.322;5.926;2022-12-18T04:18:36;-7.20;97.30
69189;DHT22;56302;52.322;5.926;2022-12-18T04:21:02;-7.20;97.20
69189;DHT22;56302;52.322;5.926;2022-12-18T04:23:28;-7.30;97.10
69189;DHT22;56302;52.322;5.926;2022-12-18T04:25:53;-7.40;97.10
69189;DHT22;56302;52.322;5.926;2022-12-18T04:28:19;-7.50;97.60
69189;DHT22;56302;52.322;5.926;2022-12-18T04:30:45;-7.50;97.50
69189;DHT22;56302;52.322;5.926;2022-12-18T04:33:11;-7.60;97.80
69189;DHT22;56302;52.322;5.926;2022-12-18T04:35:38;-7.50;98.00
69189;DHT22;56302;52.322;5.926;2022-12-18T04:38:06;-7.50;97.90
69189;DHT22;56302;52.322;5.926;2022-12-18T04:40:35;-7.60;98.00
69189;DHT22;56302;52.322;5.926;2022-12-18T04:43:01;-7.70;98.10
69189;DHT22;56302;52.322;5.926;2022-12-18T04:45:26;-7.70;98.10
69189;DHT22;56302;52.322;5.926;2022-12-18T04:47:52;-7.70;98.10
69189;DHT22;56302;52.322;5.926;2022-12-18T04:50:18;-7.60;98.40
69189;DHT22;56302;52.322;5.926;2022-12-18T04:52:43;-7.60;98.40
69189;DHT22;56302;52.322;5.926;2022-12-18T04:55:09;-7.60;98.50
69189;DHT22;56302;52.322;5.926;2022-12-18T04:57:34;-7.60;98.50
69189;DHT22;56302;52.322;5.926;2022-12-18T05:00:00;-7.60;98.70
69189;DHT22;56302;52.322;5.926;2022-12-18T05:02:25;-7.60;98.70
69189;DHT22;56302;52.322;5.926;2022-12-18T05:04:51;-7.60;98.70
69189;DHT22;56302;52.322;5.926;2022-12-18T05:07:16;-7.70;98.70
69189;DHT22;56302;52.322;5.926;2022-12-18T05:09:42;-7.60;98.70
69189;DHT22;56302;52.322;5.926;2022-12-18T05:12:07;-7.70;98.70
69189;DHT22;56302;52.322;5.926;2022-12-18T05:14:33;-7.70;98.60
69189;DHT22;56302;52.322;5.926;2022-12-18T05:16:58;-7.70;98.70
69189;DHT22;56302;52.322;5.926;2022-12-18T05:19:24;-7.60;98.70
69189;DHT22;56302;52.322;5.926;2022-12-18T05:21:49;-7.60;98.60
69189;DHT22;56302;52.322;5.926;2022-12-18T05:24:15;-7.60;98.50
69189;DHT22;56302;52.322;5.926;2022-12-18T05:26:40;-7.60;98.40
69189;DHT22;56302;52.322;5.926;2022-12-18T05:29:06;-7.60;98.60
69189;DHT22;56302;52.322;5.926;2022-12-18T05:31:31;-7.70;98.20
69189;DHT22;56302;52.322;5.926;2022-12-18T05:33:57;-7.60;98.50
69189;DHT22;56302;52.322;5.926;2022-12-18T05:36:23;-7.60;98.30
69189;DHT22;56302;52.322;5.926;2022-12-18T05:38:49;-7.60;97.90
69189;DHT22;56302;52.322;5.926;2022-12-18T05:41:14;-7.70;97.90
69189;DHT22;56302;52.322;5.926;2022-12-18T05:43:40;-7.70;97.90
69189;DHT22;56302;52.322;5.926;2022-12-18T05:46:08;-7.70;97.70
69189;DHT22;56302;52.322;5.926;2022-12-18T05:48:34;-7.80;97.70
69189;DHT22;56302;52.322;5.926;2022-12-18T05:51:08;-7.70;97.80
69189;DHT22;56302;52.322;5.926;2022-12-18T05:53:35;-7.70;97.80
69189;DHT22;56302;52.322;5.926;2022-12-18T05:56:05;-7.70;97.70
69189;DHT22;56302;52.322;5.926;2022-12-18T05:58:32;-7.80;97.50
69189;DHT22;56302;52.322;5.926;2022-12-18T06:01:04;-7.80;97.70
69189;DHT22;56302;52.322;5.926;2022-12-18T06:03:30;-7.70;97.90
69189;DHT22;56302;52.322;5.926;2022-12-18T06:05:56;-7.80;97.70
69189;DHT22;56302;52.322;5.926;2022-12-18T06:08:21;-7.80;97.80
69189;DHT22;56302;52.322;5.926;2022-12-18T06:10:50;-7.90;98.00
69189;DHT22;56302;52.322;5.926;2022-12-18T06:13:17;-7.90;98.10
69189;DHT22;56302;52.322;5.926;2022-12-18T06:15:43;-7.90;98.20
69189;DHT22;56302;52.322;5.926;2022-12-18T06:18:08;-8.00;98.40
69189;DHT22;56302;52.322;5.926;2022-12-18T06:20:34;-8.00;98.60
69189;DHT22;56302;52.322;5.926;2022-12-18T06:23:01;-8.00;98.80
69189;DHT22;56302;52.322;5.926;2022-12-18T06:25:27;-7.90;98.90
69189;DHT22;56302;52.322;5.926;2022-12-18T06:27:53;-7.90;99.00
69189;DHT22;56302;52.322;5.926;2022-12-18T06:30:19;-7.90;99.10
69189;DHT22;56302;52.322;5.926;2022-12-18T06:32:45;-7.90;99.10
69189;DHT22;56302;52.322;5.926;2022-12-18T06:35:11;-7.90;99.10
69189;DHT22;56302;52.322;5.926;2022-12-18T06:37:36;-8.00;99.20
69189;DHT22;56302;52.322;5.926;2022-12-18T06:40:02;-7.90;99.20
69189;DHT22;56302;52.322;5.926;2022-12-18T06:42:28;-7.90;99.00
69189;DHT22;56302;52.322;5.926;2022-12-18T06:44:54;-8.00;98.80
69189;DHT22;56302;52.322;5.926;2022-12-18T06:47:19;-8.00;98.80
69189;DHT22;56302;52.322;5.926;2022-12-18T06:49:45;-8.00;98.90
69189;DHT22;56302;52.322;5.926;2022-12-18T06:52:10;-8.00;98.90
69189;DHT22;56302;52.322;5.926;2022-12-18T06:54:36;-7.90;98.80
69189;DHT22;56302;52.322;5.926;2022-12-18T06:57:01;-7.90;98.90
69189;DHT22;56302;52.322;5.926;2022-12-18T06:59:27;-7.90;99.00
69189;DHT22;56302;52.322;5.926;2022-12-18T07:01:53;-7.90;99.10
69189;DHT22;56302;52.322;5.926;2022-12-18T07:04:18;-7.80;99.20
69189;DHT22;56302;52.322;5.926;2022-12-18T07:06:44;-7.80;99.00
69189;DHT22;56302;52.322;5.926;2022-12-18T07:09:09;-7.80;99.00
69189;DHT22;56302;52.322;5.926;2022-12-18T07:11:35;-7.70;98.80
69189;DHT22;56302;52.322;5.926;2022-12-18T07:14:00;-7.80;98.60
69189;DHT22;56302;52.322;5.926;2022-12-18T07:16:26;-7.70;98.60
69189;DHT22;56302;52.322;5.926;2022-12-18T07:18:54;-7.80;98.60
69189;DHT22;56302;52.322;5.926;2022-12-18T07:21:21;-7.80;98.70
69189;DHT22;56302;52.322;5.926;2022-12-18T07:23:46;-7.80;98.90
69189;DHT22;56302;52.322;5.926;2022-12-18T07:26:14;-7.80;99.00
69189;DHT22;56302;52.322;5.926;2022-12-18T07:28:40;-7.80;99.10
69189;DHT22;56302;52.322;5.926;2022-12-18T07:31:08;-7.80;99.30
69189;DHT22;56302;52.322;5.926;2022-12-18T07:33:34;-7.70;99.40
69189;DHT22;56302;52.322;5.926;2022-12-18T07:36:04;-7.70;99.40
69189;DHT22;56302;52.322;5.926;2022-12-18T07:38:31;-7.70;99.50
69189;DHT22;56302;52.322;5.926;2022-12-18T07:41:04;-7.70;99.50
69189;DHT22;56302;52.322;5.926;2022-12-18T07:43:30;-7.70;99.70
69189;DHT22;56302;52.322;5.926;2022-12-18T07:45:56;-7.70;99.60
69189;DHT22;56302;52.322;5.926;2022-12-18T07:48:21;-7.70;99.60
69189;DHT22;56302;52.322;5.926;2022-12-18T07:50:47;-7.60;99.60
69189;DHT22;56302;52.322;5.926;2022-12-18T07:53:12;-7.60;99.70
69189;DHT22;56302;52.322;5.926;2022-12-18T07:55:40;-7.60;99.70
69189;DHT22;56302;52.322;5.926;2022-12-18T07:58:06;-7.50;99.80
69189;DHT22;56302;52.322;5.926;2022-12-18T08:00:32;-7.50;99.80
69189;DHT22;56302;52.322;5.926;2022-12-18T08:02:57;-7.40;99.80
69189;DHT22;56302;52.322;5.926;2022-12-18T08:05:23;-7.40;99.80
69189;DHT22;56302;52.322;5.926;2022-12-18T08:07:49;-7.30;99.90
69189;DHT22;56302;52.322;5.926;2022-12-18T08:10:14;-7.20;99.90
69189;DHT22;56302;52.322;5.926;2022-12-18T08:12:40;-7.20;99.80
69189;DHT22;56302;52.322;5.926;2022-12-18T08:15:06;-7.10;99.70
69189;DHT22;56302;52.322;5.926;2022-12-18T08:17:32;-7.10;99.60
69189;DHT22;56302;52.322;5.926;2022-12-18T08:19:57;-7.00;99.60
69189;DHT22;56302;52.322;5.926;2022-12-18T08:22:23;-7.00;99.50
69189;DHT22;56302;52.322;5.926;2022-12-18T08:24:48;-7.00;99.50
69189;DHT22;56302;52.322;5.926;2022-12-18T08:27:14;-6.90;99.50
69189;DHT22;56302;52.322;5.926;2022-12-18T08:29:40;-6.90;99.50
69189;DHT22;56302;52.322;5.926;2022-12-18T08:32:05;-6.80;99.50
69189;DHT22;56302;52.322;5.926;2022-12-18T08:34:31;-6.70;99.40
69189;DHT22;56302;52.322;5.926;2022-12-18T08:36:56;-6.70;99.40
69189;DHT22;56302;52.322;5.926;2022-12-18T08:39:22;-6.60;99.40
69189;DHT22;56302;52.322;5.926;2022-12-18T08:41:47;-6.60;99.40
69189;DHT22;56302;52.322;5.926;2022-12-18T08:44:33;-6.50;99.40
69189;DHT22;56302;52.322;5.926;2022-12-18T08:47:05;-6.40;99.30
69189;DHT22;56302;52.322;5.926;2022-12-18T08:49:32;-6.30;99.30
69189;DHT22;56302;52.322;5.926;2022-12-18T08:51:57;-6.30;99.20
69189;DHT22;56302;52.322;5.926;2022-12-18T08:54:23;-6.30;99.20
69189;DHT22;56302;52.322;5.926;2022-12-18T08:56:49;-6.20;99.20
69189;DHT22;56302;52.322;5.926;2022-12-18T08:59:18;-6.10;99.00
69189;DHT22;56302;52.322;5.926;2022-12-18T09:01:45;-6.10;99.00
69189;DHT22;56302;52.322;5.926;2022-12-18T09:04:11;-6.10;98.90
69189;DHT22;56302;52.322;5.926;2022-12-18T09:06:37;-6.10;98.90
69189;DHT22;56302;52.322;5.926;2022-12-18T09:09:04;-6.10;98.80
69189;DHT22;56302;52.322;5.926;2022-12-18T09:11:30;-6.00;98.80
69189;DHT22;56302;52.322;5.926;2022-12-18T09:13:57;-6.00;98.80
69189;DHT22;56302;52.322;5.926;2022-12-18T09:16:25;-5.90;98.70
69189;DHT22;56302;52.322;5.926;2022-12-18T09:18:51;-5.90;98.80
69189;DHT22;56302;52.322;5.926;2022-12-18T09:21:19;-5.80;98.80
69189;DHT22;56302;52.322;5.926;2022-12-18T09:23:53;-5.70;98.80
69189;DHT22;56302;52.322;5.926;2022-12-18T09:26:19;-5.60;98.70
69189;DHT22;56302;52.322;5.926;2022-12-18T09:28:45;-5.50;98.80
69189;DHT22;56302;52.322;5.926;2022-12-18T09:31:15;-5.50;98.70
69189;DHT22;56302;52.322;5.926;2022-12-18T09:33:41;-5.40;98.70
69189;DHT22;56302;52.322;5.926;2022-12-18T09:36:09;-5.40;98.60
69189;DHT22;56302;52.322;5.926;2022-12-18T09:38:36;-5.30;98.50
69189;DHT22;56302;52.322;5.926;2022-12-18T09:41:33;-5.30;98.50
69189;DHT22;56302;52.322;5.926;2022-12-18T09:44:47;-5.20;98.40
69189;DHT22;56302;52.322;5.926;2022-12-18T09:47:28;-5.20;98.40
69189;DHT22;56302;52.322;5.926;2022-12-18T09:50:01;-5.10;98.40
69189;DHT22;56302;52.322;5.926;2022-12-18T09:52:35;-5.00;98.30
69189;DHT22;56302;52.322;5.926;2022-12-18T09:55:15;-5.00;98.30
69189;DHT22;56302;52.322;5.926;2022-12-18T09:57:52;-4.90;98.20
69189;DHT22;56302;52.322;5.926;2022-12-18T10:00:25;-4.90;98.10
69189;DHT22;56302;52.322;5.926;2022-12-18T10:02:53;-4.80;98.00
69189;DHT22;56302;52.322;5.926;2022-12-18T10:10:47;-4.60;98.00
69189;DHT22;56302;52.322;5.926;2022-12-18T10:13:23;-4.60;98.00
69189;DHT22;56302;52.322;5.926;2022-12-18T10:18:56;-4.40;98.10
69189;DHT22;56302;52.322;5.926;2022-12-18T10:21:37;-4.30;97.90
69189;DHT22;56302;52.322;5.926;2022-12-18T10:26:42;-4.20;97.70
69189;DHT22;56302;52.322;5.926;2022-12-18T10:29:14;-4.20;97.70
69189;DHT22;56302;52.322;5.926;2022-12-18T10:31:40;-4.10;97.60
69189;DHT22;56302;52.322;5.926;2022-12-18T10:34:10;-4.00;97.70
69189;DHT22;56302;52.322;5.926;2022-12-18T10:36:35;-4.00;97.50
69189;DHT22;56302;52.322;5.926;2022-12-18T10:39:20;-4.00;97.50
69189;DHT22;56302;52.322;5.926;2022-12-18T10:41:47;-3.90;97.30
69189;DHT22;56302;52.322;5.926;2022-12-18T10:44:24;-3.90;97.40
69189;DHT22;56302;52.322;5.926;2022-12-18T10:46:55;-3.80;97.50
69189;DHT22;56302;52.322;5.926;2022-12-18T10:49:32;-3.70;97.50
69189;DHT22;56302;52.322;5.926;2022-12-18T10:52:18;-3.70;97.20
69189;DHT22;56302;52.322;5.926;2022-12-18T10:55:03;-3.60;97.10
69189;DHT22;56302;52.322;5.926;2022-12-18T10:57:35;-3.50;97.20
69189;DHT22;56302;52.322;5.926;2022-12-18T11:00:21;-3.50;97.00
69189;DHT22;56302;52.322;5.926;2022-12-18T11:02:47;-3.50;96.90
69189;DHT22;56302;52.322;5.926;2022-12-18T11:05:30;-3.40;96.90
69189;DHT22;56302;52.322;5.926;2022-12-18T11:07:57;-3.30;96.50
69189;DHT22;56302;52.322;5.926;2022-12-18T11:10:46;-3.30;96.30
69189;DHT22;56302;52.322;5.926;2022-12-18T11:13:23;-3.20;96.20
69189;DHT22;56302;52.322;5.926;2022-12-18T11:15:50;-3.10;96.00
69189;DHT22;56302;52.322;5.926;2022-12-18T11:18:38;-3.10;95.60
69189;DHT22;56302;52.322;5.926;2022-12-18T11:21:07;-3.10;95.20
69189;DHT22;56302;52.322;5.926;2022-12-18T11:23:33;-3.00;95.10
69189;DHT22;56302;52.322;5.926;2022-12-18T11:26:01;-3.00;95.20
69189;DHT22;56302;52.322;5.926;2022-12-18T11:28:28;-3.00;95.20
69189;DHT22;56302;52.322;5.926;2022-12-18T11:31:21;-2.90;95.20
69189;DHT22;56302;52.322;5.926;2022-12-18T11:36:29;-2.80;94.40
69189;DHT22;56302;52.322;5.926;2022-12-18T11:38:59;-2.80;94.40
69189;DHT22;56302;52.322;5.926;2022-12-18T11:44:49;-2.70;94.30
69189;DHT22;56302;52.322;5.926;2022-12-18T11:47:24;-2.60;94.10
69189;DHT22;56302;52.322;5.926;2022-12-18T11:49:55;-2.60;94.20
69189;DHT22;56302;52.322;5.926;2022-12-18T11:52:38;-2.60;93.90
69189;DHT22;56302;52.322;5.926;2022-12-18T11:58:29;-2.50;93.20
69189;DHT22;56302;52.322;5.926;2022-12-18T12:03:50;-2.40;92.80
69189;DHT22;56302;52.322;5.926;2022-12-18T12:09:24;-2.40;93.00
69189;DHT22;56302;52.322;5.926;2022-12-18T12:17:45;-2.30;92.10
69189;DHT22;56302;52.322;5.926;2022-12-18T12:20:22;-2.30;92.30
69189;DHT22;56302;52.322;5.926;2022-12-18T12:25:37;-2.20;91.10
69189;DHT22;56302;52.322;5.926;2022-12-18T12:31:13;-2.20;91.30
69189;DHT22;56302;52.322;5.926;2022-12-18T12:36:39;-2.10;91.40
69189;DHT22;56302;52.322;5.926;2022-12-18T12:39:14;-2.10;91.60
69189;DHT22;56302;52.322;5.926;2022-12-18T12:41:42;-2.10;91.70
69189;DHT22;56302;52.322;5.926;2022-12-18T12:44:32;-2.00;91.00
69189;DHT22;56302;52.322;5.926;2022-12-18T12:47:08;-2.00;91.00
69189;DHT22;56302;52.322;5.926;2022-12-18T12:49:35;-2.00;91.10
69189;DHT22;56302;52.322;5.926;2022-12-18T12:52:10;-2.00;90.80
69189;DHT22;56302;52.322;5.926;2022-12-18T12:54:37;-1.90;90.60
69189;DHT22;56302;52.322;5.926;2022-12-18T13:08:11;-1.80;89.80
69189;DHT22;56302;52.322;5.926;2022-12-18T13:10:39;-1.80;90.10
69189;DHT22;56302;52.322;5.926;2022-12-18T13:13:13;-1.90;90.30
69189;DHT22;56302;52.322;5.926;2022-12-18T13:15:45;-1.80;89.80
69189;DHT22;56302;52.322;5.926;2022-12-18T13:18:19;-1.80;89.50
69189;DHT22;56302;52.322;5.926;2022-12-18T13:23:31;-1.80;89.00
69189;DHT22;56302;52.322;5.926;2022-12-18T13:31:14;-1.80;88.80
69189;DHT22;56302;52.322;5.926;2022-12-18T13:33:42;-1.80;88.80
69189;DHT22;56302;52.322;5.926;2022-12-18T13:36:31;-1.80;88.90
69189;DHT22;56302;52.322;5.926;2022-12-18T13:41:35;-1.80;88.40
69189;DHT22;56302;52.322;5.926;2022-12-18T13:46:44;-1.80;89.00
69189;DHT22;56302;52.322;5.926;2022-12-18T13:51:50;-1.80;89.20
69189;DHT22;56302;52.322;5.926;2022-12-18T13:54:36;-1.80;88.90
69189;DHT22;56302;52.322;5.926;2022-12-18T13:57:04;-1.80;88.80
69189;DHT22;56302;52.322;5.926;2022-12-18T13:59:37;-1.90;88.60
69189;DHT22;56302;52.322;5.926;2022-12-18T14:02:17;-1.90;88.60
69189;DHT22;56302;52.322;5.926;2022-12-18T14:04:46;-1.80;88.90
69189;DHT22;56302;52.322;5.926;2022-12-18T14:07:18;-1.80;88.90
69189;DHT22;56302;52.322;5.926;2022-12-18T14:09:46;-1.80;88.60
69189;DHT22;56302;52.322;5.926;2022-12-18T14:12:22;-1.80;88.80
69189;DHT22;56302;52.322;5.926;2022-12-18T14:15:49;-1.80;89.00
69189;DHT22;56302;52.322;5.926;2022-12-18T14:18:41;-1.80;89.00
69189;DHT22;56302;52.322;5.926;2022-12-18T14:21:18;-1.80;88.90
69189;DHT22;56302;52.322;5.926;2022-12-18T14:23:45;-1.80;89.10
69189;DHT22;56302;52.322;5.926;2022-12-18T14:26:28;-1.80;88.70
69189;DHT22;56302;52.322;5.926;2022-12-18T14:29:17;-1.80;88.00
69189;DHT22;56302;52.322;5.926;2022-12-18T14:31:42;-1.80;87.70
69189;DHT22;56302;52.322;5.926;2022-12-18T14:34:17;-1.70;87.30
69189;DHT22;56302;52.322;5.926;2022-12-18T14:36:52;-1.80;87.40
69189;DHT22;56302;52.322;5.926;2022-12-18T14:39:18;-1.70;87.20
69189;DHT22;56302;52.322;5.926;2022-12-18T14:41:44;-1.70;87.60
69189;DHT22;56302;52.322;5.926;2022-12-18T14:44:12;-1.80;88.10
69189;DHT22;56302;52.322;5.926;2022-12-18T14:46:43;-1.80;88.00
69189;DHT22;56302;52.322;5.926;2022-12-18T14:51:48;-1.70;87.30
69189;DHT22;56302;52.322;5.926;2022-12-18T14:54:19;-1.80;87.50
69189;DHT22;56302;52.322;5.926;2022-12-18T14:57:28;-1.80;87.70
69189;DHT22;56302;52.322;5.926;2022-12-18T14:59:52;-1.80;87.80
69189;DHT22;56302;52.322;5.926;2022-12-18T15:02:21;-1.80;87.20
69189;DHT22;56302;52.322;5.926;2022-12-18T15:04:53;-1.70;87.20
69189;DHT22;56302;52.322;5.926;2022-12-18T15:07:24;-1.70;86.80
69189;DHT22;56302;52.322;5.926;2022-12-18T15:12:36;-1.70;86.70
69189;DHT22;56302;52.322;5.926;2022-12-18T15:15:03;-1.70;86.70
69189;DHT22;56302;52.322;5.926;2022-12-18T15:17:28;-1.70;87.20
69189;DHT22;56302;52.322;5.926;2022-12-18T15:20:01;-1.70;87.50
69189;DHT22;56302;52.322;5.926;2022-12-18T15:22:30;-1.70;87.70
69189;DHT22;56302;52.322;5.926;2022-12-18T15:24:57;-1.70;87.80
69189;DHT22;56302;52.322;5.926;2022-12-18T15:27:32;-1.70;87.50
69189;DHT22;56302;52.322;5.926;2022-12-18T15:30:17;-1.70;87.10
69189;DHT22;56302;52.322;5.926;2022-12-18T15:32:43;-1.70;87.70
69189;DHT22;56302;52.322;5.926;2022-12-18T15:35:23;-1.70;88.00
69189;DHT22;56302;52.322;5.926;2022-12-18T15:37:50;-1.80;88.30
69189;DHT22;56302;52.322;5.926;2022-12-18T15:40:18;-1.80;88.50
69189;DHT22;56302;52.322;5.926;2022-12-18T15:42:45;-1.80;88.90
69189;DHT22;56302;52.322;5.926;2022-12-18T15:45:29;-1.80;88.40
69189;DHT22;56302;52.322;5.926;2022-12-18T15:47:55;-1.70;88.00
69189;DHT22;56302;52.322;5.926;2022-12-18T15:50:21;-1.70;87.70
69189;DHT22;56302;52.322;5.926;2022-12-18T15:52:49;-1.70;88.00
69189;DHT22;56302;52.322;5.926;2022-12-18T15:55:22;-1.70;88.00
69189;DHT22;56302;52.322;5.926;2022-12-18T15:58:08;-1.70;88.40
69189;DHT22;56302;52.322;5.926;2022-12-18T16:00:35;-1.80;88.60
69189;DHT22;56302;52.322;5.926;2022-12-18T16:03:02;-1.80;88.70
69189;DHT22;56302;52.322;5.926;2022-12-18T16:05:28;-1.80;88.90
69189;DHT22;56302;52.322;5.926;2022-12-18T16:07:53;-1.80;88.90
69189;DHT22;56302;52.322;5.926;2022-12-18T16:10:19;-1.70;89.00
69189;DHT22;56302;52.322;5.926;2022-12-18T16:12:45;-1.70;89.10
69189;DHT22;56302;52.322;5.926;2022-12-18T16:15:13;-1.70;89.10
69189;DHT22;56302;52.322;5.926;2022-12-18T16:17:43;-1.80;89.30
69189;DHT22;56302;52.322;5.926;2022-12-18T16:20:16;-1.70;89.20
69189;DHT22;56302;52.322;5.926;2022-12-18T16:22:43;-1.70;89.00
69189;DHT22;56302;52.322;5.926;2022-12-18T16:25:20;-1.70;89.10
69189;DHT22;56302;52.322;5.926;2022-12-18T16:27:46;-1.70;88.90
69189;DHT22;56302;52.322;5.926;2022-12-18T16:30:14;-1.70;88.90
69189;DHT22;56302;52.322;5.926;2022-12-18T16:32:39;-1.70;89.10
69189;DHT22;56302;52.322;5.926;2022-12-18T16:35:05;-1.70;88.80
69189;DHT22;56302;52.322;5.926;2022-12-18T16:37:31;-1.60;88.80
69189;DHT22;56302;52.322;5.926;2022-12-18T16:39:56;-1.70;89.10
69189;DHT22;56302;52.322;5.926;2022-12-18T16:42:22;-1.70;89.20
69189;DHT22;56302;52.322;5.926;2022-12-18T16:44:48;-1.70;88.90
69189;DHT22;56302;52.322;5.926;2022-12-18T16:47:14;-1.70;89.00
69189;DHT22;56302;52.322;5.926;2022-12-18T16:49:40;-1.60;88.90
69189;DHT22;56302;52.322;5.926;2022-12-18T16:52:06;-1.60;88.60
69189;DHT22;56302;52.322;5.926;2022-12-18T16:54:32;-1.60;89.00
69189;DHT22;56302;52.322;5.926;2022-12-18T16:56:59;-1.70;89.30
69189;DHT22;56302;52.322;5.926;2022-12-18T16:59:25;-1.60;89.20
69189;DHT22;56302;52.322;5.926;2022-12-18T17:01:51;-1.70;89.30
69189;DHT22;56302;52.322;5.926;2022-12-18T17:04:17;-1.60;89.30
69189;DHT22;56302;52.322;5.926;2022-12-18T17:06:44;-1.70;89.50
69189;DHT22;56302;52.322;5.926;2022-12-18T17:09:12;-1.60;89.30
69189;DHT22;56302;52.322;5.926;2022-12-18T17:11:41;-1.60;89.30
69189;DHT22;56302;52.322;5.926;2022-12-18T17:14:09;-1.60;89.10